Weather at Suburban Airport [CLOSED]

Public forecast

Using degrees Fahrenheit for public forecast. Weather courtesy of forecast.io.

Closest aviation weather report (METAR) to Suburban Airport

Closest report is Tipton Airport, 3.2 nm (6.0 km) E. Retrieved 2020/10/29 13:35 UTC (22 minutes ago):

KFME 291335Z AUTO 07007KT 2SM OVC005 12/12 A2976 RMK AO1

Closest aviation forecast (TAF) to Suburban Airport

Closest forecast is Baltimore/Washington International Thurgood Marshall Airport, 9.5 nm (17.6 km) NE. Retrieved 2020/10/29 12:42 UTC (1 hour ago):

TAF KBWI 291140Z 2912/3018 06011KT 4SM -RA OVC007 FM291400 06007KT 2SM RA OVC005 FM291800 06011G18KT 1SM RA OVC003 FM300000 03010G18KT 5SM -RA BR OVC003 FM300400 02009KT 5SM -RA BR OVC008 FM301200 36012KT P6SM OVC015 FM301700 34011G21KT P6SM BKN015